createdAt,value
2017-08-01T00:00:46.864Z,0
2017-08-01T00:01:59.163Z,0
2017-08-01T00:03:11.132Z,0
2017-08-01T00:04:23.700Z,0
2017-08-01T00:05:36.282Z,0
2017-08-01T00:06:48.596Z,0
2017-08-01T00:08:01.246Z,0
2017-08-01T00:09:13.842Z,0
2017-08-01T00:10:26.440Z,0
2017-08-01T00:11:39.063Z,0
2017-08-01T00:12:51.696Z,0
2017-08-01T00:14:04.276Z,0
2017-08-01T00:15:16.907Z,0
2017-08-01T00:16:29.159Z,0
2017-08-01T00:17:41.722Z,0
2017-08-01T00:18:54.026Z,0
2017-08-01T00:20:06.364Z,0
2017-08-01T00:21:18.660Z,0
2017-08-01T00:22:30.889Z,0
2017-08-01T00:23:43.489Z,0
2017-08-01T00:24:56.105Z,0
2017-08-01T00:26:08.415Z,0
2017-08-01T00:27:20.741Z,0
2017-08-01T00:28:33.017Z,0
2017-08-01T00:29:45.600Z,0
2017-08-01T00:30:58.478Z,0
2017-08-01T00:32:10.108Z,0
2017-08-01T00:33:22.401Z,0
2017-08-01T00:34:34.705Z,0
2017-08-01T00:35:47.360Z,0
2017-08-01T00:36:59.614Z,0
2017-08-01T00:38:11.910Z,0
2017-08-01T00:39:24.482Z,0
2017-08-01T00:40:36.985Z,0
2017-08-01T00:41:49.559Z,0
2017-08-01T00:43:02.194Z,0
2017-08-01T00:44:14.501Z,0
2017-08-01T00:45:27.142Z,0
2017-08-01T00:46:39.447Z,0
2017-08-01T00:47:51.755Z,0
2017-08-01T00:49:04.085Z,0
2017-08-01T00:50:16.410Z,0
2017-08-01T00:51:29.023Z,0
2017-08-01T00:52:41.629Z,0
2017-08-01T00:53:54.163Z,0
2017-08-01T00:55:06.760Z,0
2017-08-01T00:56:19.392Z,0
2017-08-01T00:57:32.001Z,0
2017-08-01T00:58:44.597Z,0
2017-08-01T00:59:56.890Z,0
2017-08-01T01:01:09.232Z,0
2017-08-01T01:02:21.779Z,0
2017-08-01T01:03:34.625Z,0
2017-08-01T01:04:47.212Z,0
2017-08-01T01:05:59.499Z,0
2017-08-01T01:07:12.118Z,0
2017-08-01T01:08:24.401Z,0
2017-08-01T01:09:37.004Z,0
2017-08-01T01:10:49.307Z,0
2017-08-01T01:12:01.903Z,0
2017-08-01T01:13:14.509Z,0
2017-08-01T01:14:27.094Z,0
2017-08-01T01:15:39.675Z,0
2017-08-01T01:16:52.232Z,0
2017-08-01T01:18:04.827Z,0
2017-08-01T01:19:17.376Z,0
2017-08-01T01:20:30.217Z,0
2017-08-01T01:21:42.761Z,0
2017-08-01T01:22:55.076Z,0
2017-08-01T01:24:07.661Z,0
2017-08-01T01:25:20.305Z,0
2017-08-01T01:26:32.297Z,0
2017-08-01T01:27:44.858Z,0
2017-08-01T01:28:57.426Z,0
2017-08-01T01:30:09.743Z,0
2017-08-01T01:31:22.309Z,0
2017-08-01T01:32:34.577Z,0
2017-08-01T01:33:47.189Z,0
2017-08-01T01:34:59.825Z,0
2017-08-01T01:36:12.088Z,0
2017-08-01T01:37:24.367Z,0
2017-08-01T01:38:36.612Z,0
2017-08-01T01:39:49.192Z,0
2017-08-01T01:41:01.859Z,0
2017-08-01T01:42:13.869Z,0
2017-08-01T01:43:26.465Z,0
2017-08-01T01:44:39.077Z,0
2017-08-01T01:45:51.348Z,0
2017-08-01T01:47:03.611Z,0
2017-08-01T01:48:16.229Z,0
2017-08-01T01:49:28.484Z,0
2017-08-01T01:50:41.098Z,0
2017-08-01T01:51:53.425Z,0
2017-08-01T01:53:06.270Z,0
2017-08-01T01:54:18.778Z,0
2017-08-01T01:55:31.032Z,0
2017-08-01T01:56:43.344Z,0
2017-08-01T01:57:55.658Z,0
2017-08-01T01:59:07.936Z,0
2017-08-01T02:00:20.496Z,0
2017-08-01T02:01:33.129Z,0
2017-08-01T02:02:45.701Z,0
2017-08-01T02:03:58.346Z,0
2017-08-01T02:05:11.009Z,0
2017-08-01T02:06:23.594Z,0
2017-08-01T02:07:35.533Z,0
2017-08-01T02:08:48.442Z,0
2017-08-01T02:10:01.060Z,0
2017-08-01T02:11:12.996Z,0
2017-08-01T02:12:25.554Z,0
2017-08-01T02:13:37.838Z,0
2017-08-01T02:14:50.458Z,0
2017-08-01T02:16:02.732Z,0
2017-08-01T02:17:15.275Z,0
2017-08-01T02:18:27.838Z,0
2017-08-01T02:19:40.128Z,0
2017-08-01T02:20:52.680Z,0
2017-08-01T02:22:04.661Z,0
2017-08-01T02:23:17.216Z,0
2017-08-01T02:24:29.843Z,0
2017-08-01T02:25:42.464Z,0
2017-08-01T02:26:55.029Z,0
2017-08-01T02:28:07.373Z,0
2017-08-01T02:29:19.998Z,0
2017-08-01T02:30:32.605Z,0
2017-08-01T02:31:45.254Z,0
2017-08-01T02:32:57.578Z,0
2017-08-01T02:34:10.148Z,0
2017-08-01T02:35:22.451Z,0
2017-08-01T02:36:34.647Z,0
2017-08-01T02:37:47.269Z,0
2017-08-01T02:38:59.555Z,0
2017-08-01T02:40:12.097Z,0
2017-08-01T02:41:24.770Z,0
2017-08-01T02:42:37.323Z,0
2017-08-01T02:43:49.913Z,0
2017-08-01T02:45:02.464Z,0
2017-08-01T02:46:14.832Z,0
2017-08-01T02:47:27.339Z,0
2017-08-01T02:48:39.924Z,0
2017-08-01T02:49:52.547Z,0
2017-08-01T02:51:05.086Z,0
2017-08-01T02:52:17.693Z,0
2017-08-01T02:53:29.996Z,0
2017-08-01T02:54:42.673Z,0
2017-08-01T02:55:54.958Z,0
2017-08-01T02:57:07.597Z,0
2017-08-01T02:58:20.462Z,0
2017-08-01T02:59:33.089Z,0
2017-08-01T03:00:45.730Z,0
2017-08-01T03:01:57.974Z,0
2017-08-01T03:03:10.271Z,0
2017-08-01T03:04:22.829Z,0
2017-08-01T03:05:35.441Z,0
2017-08-01T03:06:48.008Z,0
2017-08-01T03:08:00.572Z,0
2017-08-01T03:09:13.197Z,0
2017-08-01T03:10:25.824Z,0
2017-08-01T03:11:38.440Z,0
2017-08-01T03:12:50.761Z,0
2017-08-01T03:14:03.309Z,0
2017-08-01T03:15:15.879Z,0
2017-08-01T03:16:28.494Z,0
2017-08-01T03:17:40.758Z,0
2017-08-01T03:18:53.325Z,0
2017-08-01T03:20:05.975Z,0
2017-08-01T03:21:18.639Z,0
2017-08-01T03:22:30.948Z,0
2017-08-01T03:23:43.551Z,0
2017-08-01T03:24:55.803Z,0
2017-08-01T03:26:08.360Z,0
2017-08-01T03:27:20.969Z,5
2017-08-01T03:28:33.599Z,5
2017-08-01T03:29:46.198Z,5
2017-08-01T03:30:59.051Z,5
2017-08-01T03:32:11.623Z,5
2017-08-01T03:33:24.213Z,5
2017-08-01T03:34:36.856Z,5
2017-08-01T03:35:49.412Z,5
2017-08-01T03:37:02.056Z,5
2017-08-01T03:38:14.338Z,5
2017-08-01T03:39:26.898Z,5
2017-08-01T03:40:39.468Z,5
2017-08-01T03:41:52.291Z,0
2017-08-01T03:43:04.561Z,0
2017-08-01T03:44:17.134Z,5
2017-08-01T03:45:29.725Z,5
2017-08-01T03:46:42.353Z,5
2017-08-01T03:47:54.878Z,10
2017-08-01T03:49:07.539Z,10
2017-08-01T03:50:19.791Z,15
2017-08-01T03:51:32.388Z,20
2017-08-01T03:52:44.653Z,25
2017-08-01T03:53:56.948Z,25
2017-08-01T03:55:09.505Z,25
2017-08-01T03:56:22.114Z,25
2017-08-01T03:57:34.734Z,25
2017-08-01T03:58:47.366Z,35
2017-08-01T03:59:59.902Z,45
2017-08-01T04:01:12.542Z,55
2017-08-01T04:02:25.095Z,55
2017-08-01T04:03:37.703Z,50
2017-08-01T04:04:50.367Z,40
2017-08-01T04:06:02.964Z,25
2017-08-01T04:07:15.532Z,15
2017-08-01T04:08:27.830Z,10
2017-08-01T04:09:40.046Z,5
2017-08-01T04:10:52.608Z,5
2017-08-01T04:12:05.240Z,5
2017-08-01T04:13:17.835Z,5
2017-08-01T04:14:30.413Z,5
2017-08-01T04:15:42.950Z,5
2017-08-01T04:16:55.528Z,5
2017-08-01T04:18:08.167Z,10
2017-08-01T04:19:20.737Z,15
2017-08-01T04:20:33.385Z,20
2017-08-01T04:21:45.690Z,20
2017-08-01T04:22:58.279Z,20
2017-08-01T04:24:10.952Z,20
2017-08-01T04:25:23.569Z,15
2017-08-01T04:26:36.168Z,15
2017-08-01T04:27:48.525Z,15
2017-08-01T04:29:01.091Z,15
2017-08-01T04:30:13.732Z,15
2017-08-01T04:31:25.974Z,10
2017-08-01T04:32:38.491Z,15
2017-08-01T04:33:51.092Z,15
2017-08-01T04:35:03.384Z,15
2017-08-01T04:36:15.983Z,20
2017-08-01T04:37:28.558Z,25
2017-08-01T04:38:41.172Z,15
2017-08-01T04:39:53.771Z,15
2017-08-01T04:41:06.631Z,20
2017-08-01T04:42:18.910Z,20
2017-08-01T04:43:31.167Z,25
2017-08-01T04:44:43.702Z,25
2017-08-01T04:45:55.997Z,20
2017-08-01T04:47:07.944Z,15
2017-08-01T04:48:20.489Z,10
2017-08-01T04:49:32.762Z,10
2017-08-01T04:50:45.368Z,5
2017-08-01T04:51:57.913Z,5
2017-08-01T04:53:10.530Z,5
2017-08-01T04:54:23.114Z,5
2017-08-01T04:55:35.113Z,10
2017-08-01T04:56:47.414Z,15
2017-08-01T04:57:59.987Z,20
2017-08-01T04:59:12.577Z,30
2017-08-01T05:00:25.192Z,50
2017-08-01T05:01:37.772Z,70
2017-08-01T05:02:50.301Z,75
2017-08-01T05:04:02.967Z,75
2017-08-01T05:05:15.518Z,80
2017-08-01T05:06:27.758Z,85
2017-08-01T05:07:40.338Z,85
2017-08-01T05:08:53.206Z,80
2017-08-01T05:10:05.603Z,75
2017-08-01T05:11:17.897Z,70
2017-08-01T05:12:30.214Z,70
2017-08-01T05:13:42.512Z,80
2017-08-01T05:14:55.152Z,80
2017-08-01T05:16:07.437Z,75
2017-08-01T05:17:19.652Z,85
2017-08-01T05:18:32.201Z,95
2017-08-01T05:19:44.893Z,100
2017-08-01T05:20:57.493Z,90
2017-08-01T05:22:10.100Z,80
2017-08-01T05:23:22.659Z,65
2017-08-01T05:24:35.491Z,50
2017-08-01T05:25:48.065Z,40
2017-08-01T05:27:00.658Z,30
2017-08-01T05:28:13.222Z,30
2017-08-01T05:29:25.807Z,25
2017-08-01T05:30:38.447Z,25
2017-08-01T05:31:50.746Z,30
2017-08-01T05:33:03.369Z,35
2017-08-01T05:34:15.959Z,40
2017-08-01T05:35:28.507Z,50
2017-08-01T05:36:40.779Z,65
2017-08-01T05:37:53.050Z,85
2017-08-01T05:39:05.010Z,100
2017-08-01T05:40:17.345Z,100
2017-08-01T05:41:30.184Z,95
2017-08-01T05:42:42.813Z,90
2017-08-01T05:43:55.419Z,80
2017-08-01T05:45:07.678Z,70
2017-08-01T05:46:20.230Z,60
2017-08-01T05:47:32.769Z,50
2017-08-01T05:48:45.059Z,45
2017-08-01T05:49:57.319Z,40
2017-08-01T05:51:09.977Z,35
2017-08-01T05:52:22.590Z,35
2017-08-01T05:53:35.150Z,30
2017-08-01T05:54:47.781Z,30
2017-08-01T05:56:00.102Z,25
2017-08-01T05:57:12.730Z,25
2017-08-01T05:58:25.301Z,20
2017-08-01T05:59:37.932Z,20
2017-08-01T06:00:50.568Z,20
2017-08-01T06:02:02.857Z,20
2017-08-01T06:03:15.315Z,20
2017-08-01T06:04:27.898Z,25
2017-08-01T06:05:40.478Z,25
2017-08-01T06:06:53.100Z,25
2017-08-01T06:08:05.325Z,25
2017-08-01T06:09:17.933Z,25
2017-08-01T06:10:30.300Z,30
2017-08-01T06:11:42.929Z,35
2017-08-01T06:12:55.559Z,40
2017-08-01T06:14:08.123Z,45
2017-08-01T06:15:20.373Z,55
2017-08-01T06:16:32.969Z,75
2017-08-01T06:17:45.322Z,95
2017-08-01T06:18:57.924Z,110
2017-08-01T06:20:10.262Z,120
2017-08-01T06:21:22.560Z,135
2017-08-01T06:22:35.171Z,145
2017-08-01T06:23:47.769Z,150
2017-08-01T06:25:00.614Z,155
2017-08-01T06:26:13.208Z,150
2017-08-01T06:27:25.461Z,145
2017-08-01T06:28:37.775Z,140
2017-08-01T06:29:50.062Z,145
2017-08-01T06:31:02.620Z,160
2017-08-01T06:32:15.190Z,175
2017-08-01T06:33:27.451Z,200
2017-08-01T06:34:40.035Z,230
2017-08-01T06:35:52.049Z,265
2017-08-01T06:37:04.328Z,300
2017-08-01T06:38:16.999Z,320
2017-08-01T06:39:29.599Z,330
2017-08-01T06:40:42.484Z,340
2017-08-01T06:41:54.704Z,350
2017-08-01T06:43:06.964Z,365
2017-08-01T06:44:19.527Z,380
2017-08-01T06:45:31.848Z,405
2017-08-01T06:46:44.113Z,420
2017-08-01T06:47:55.834Z,430
2017-08-01T06:49:08.382Z,425
2017-08-01T06:50:20.970Z,425
2017-08-01T06:51:33.559Z,420
2017-08-01T06:52:46.119Z,420
2017-08-01T06:53:58.719Z,445
2017-08-01T06:55:11.325Z,500
2017-08-01T06:56:23.337Z,575
2017-08-01T06:57:35.908Z,670
2017-08-01T06:58:48.202Z,800
2017-08-01T07:00:00.554Z,830
2017-08-01T07:01:13.151Z,930
2017-08-01T07:02:25.118Z,790
2017-08-01T07:03:37.758Z,855
2017-08-01T07:04:49.781Z,820
2017-08-01T07:06:02.090Z,1115
2017-08-01T07:07:14.722Z,940
2017-08-01T07:08:27.015Z,875
2017-08-01T07:09:39.603Z,1000
2017-08-01T07:10:51.608Z,890
2017-08-01T07:12:04.266Z,775
2017-08-01T07:13:16.898Z,875
2017-08-01T07:14:29.475Z,675
2017-08-01T07:15:42.045Z,670
2017-08-01T07:16:54.692Z,725
2017-08-01T07:18:06.718Z,945
2017-08-01T07:19:19.360Z,1035
2017-08-01T07:20:31.957Z,1070
2017-08-01T07:21:44.224Z,1205
2017-08-01T07:22:56.490Z,1250
2017-08-01T07:24:08.768Z,1280
2017-08-01T07:25:21.333Z,1365
2017-08-01T07:26:33.628Z,1300
2017-08-01T07:27:45.961Z,1350
2017-08-01T07:28:58.253Z,1360
2017-08-01T07:30:10.804Z,1405
2017-08-01T07:31:23.063Z,1230
2017-08-01T07:32:35.658Z,1175
2017-08-01T07:33:48.222Z,1160
2017-08-01T07:35:00.853Z,1140
2017-08-01T07:36:12.557Z,1180
2017-08-01T07:37:25.126Z,1435
2017-08-01T07:38:37.716Z,1445
2017-08-01T07:39:50.310Z,1465
2017-08-01T07:41:02.582Z,1395
2017-08-01T07:42:15.207Z,775
2017-08-01T07:43:27.554Z,510
2017-08-01T07:44:39.883Z,425
2017-08-01T07:45:52.218Z,425
2017-08-01T07:47:04.885Z,975
2017-08-01T07:48:17.134Z,920
2017-08-01T07:49:29.757Z,1435
2017-08-01T07:50:42.450Z,840
2017-08-01T07:51:55.000Z,850
2017-08-01T07:53:07.314Z,805
2017-08-01T07:54:19.886Z,605
2017-08-01T07:55:32.128Z,540
2017-08-01T07:56:44.712Z,510
2017-08-01T07:57:56.747Z,480
2017-08-01T07:59:09.420Z,490
2017-08-01T08:00:22.005Z,505
2017-08-01T08:01:34.612Z,515
2017-08-01T08:02:47.431Z,505
2017-08-01T08:03:59.719Z,505
2017-08-01T08:05:11.747Z,545
2017-08-01T08:06:24.347Z,595
2017-08-01T08:07:36.657Z,555
2017-08-01T08:08:48.918Z,1305
2017-08-01T08:10:01.218Z,880
2017-08-01T08:11:13.908Z,885
2017-08-01T08:12:26.480Z,1345
2017-08-01T08:13:39.061Z,605
2017-08-01T08:14:50.767Z,1235
2017-08-01T08:16:03.064Z,1905
2017-08-01T08:17:15.293Z,2070
2017-08-01T08:18:27.916Z,1175
2017-08-01T08:19:40.275Z,1495
2017-08-01T08:20:52.576Z,1270
2017-08-01T08:22:04.875Z,610
2017-08-01T08:23:16.567Z,600
2017-08-01T08:24:28.912Z,840
2017-08-01T08:25:40.931Z,585
2017-08-01T08:26:53.557Z,695
2017-08-01T08:28:06.172Z,1745
2017-08-01T08:29:18.748Z,2040
2017-08-01T08:30:31.379Z,2195
2017-08-01T08:31:43.646Z,2110
2017-08-01T08:32:56.029Z,1000
2017-08-01T08:34:08.000Z,480
2017-08-01T08:35:20.646Z,910
2017-08-01T08:36:33.246Z,1585
2017-08-01T08:37:45.868Z,1575
2017-08-01T08:38:57.631Z,1630
2017-08-01T08:40:09.315Z,1945
2017-08-01T08:41:21.303Z,1960
2017-08-01T08:42:33.973Z,1675
2017-08-01T08:43:46.568Z,1705
2017-08-01T08:44:58.798Z,1590
2017-08-01T08:46:11.087Z,1490
2017-08-01T08:47:23.379Z,1245
2017-08-01T08:48:36.019Z,1600
2017-08-01T08:49:48.621Z,1125
2017-08-01T08:51:01.243Z,975
2017-08-01T08:52:13.815Z,1090
2017-08-01T08:53:26.419Z,1180
2017-08-01T08:54:38.709Z,1880
2017-08-01T08:55:51.283Z,2085
2017-08-01T08:57:03.230Z,1710
2017-08-01T08:58:15.771Z,1145
2017-08-01T08:59:28.044Z,1065
2017-08-01T09:00:40.610Z,1190
2017-08-01T09:01:53.149Z,1185
2017-08-01T09:03:05.118Z,1625
2017-08-01T09:04:17.728Z,1145
2017-08-01T09:05:30.019Z,1880
2017-08-01T09:06:42.635Z,2200
2017-08-01T09:07:55.185Z,2705
2017-08-01T09:09:07.733Z,2430
2017-08-01T09:10:19.979Z,1230
2017-08-01T09:11:32.025Z,2065
2017-08-01T09:12:44.682Z,2365
2017-08-01T09:13:57.338Z,955
2017-08-01T09:15:09.591Z,1735
2017-08-01T09:16:21.939Z,2440
2017-08-01T09:17:34.271Z,2220
2017-08-01T09:18:46.830Z,2445
2017-08-01T09:19:58.830Z,2410
2017-08-01T09:21:11.416Z,2435
2017-08-01T09:22:23.693Z,2650
2017-08-01T09:23:35.707Z,2640
2017-08-01T09:24:48.328Z,2755
2017-08-01T09:26:00.893Z,2555
2017-08-01T09:27:12.896Z,2530
2017-08-01T09:28:25.218Z,2515
2017-08-01T09:29:37.515Z,1505
2017-08-01T09:30:50.089Z,635
2017-08-01T09:32:02.436Z,1300
2017-08-01T09:33:14.741Z,2115
2017-08-01T09:34:27.008Z,1930
2017-08-01T09:35:39.293Z,1695
2017-08-01T09:36:51.244Z,1715
2017-08-01T09:38:03.250Z,1535
2017-08-01T09:39:15.835Z,1190
2017-08-01T09:40:28.705Z,1215
2017-08-01T09:41:40.984Z,1275
2017-08-01T09:42:52.966Z,1090
2017-08-01T09:44:05.544Z,1100
2017-08-01T09:45:18.146Z,1165
2017-08-01T09:46:30.416Z,1230
2017-08-01T09:47:43.032Z,1370
2017-08-01T09:48:55.402Z,1510
2017-08-01T09:50:07.977Z,1750
2017-08-01T09:51:20.619Z,1945
2017-08-01T09:52:32.623Z,2220
2017-08-01T09:53:45.229Z,2730
2017-08-01T09:54:56.915Z,3055
2017-08-01T09:56:09.249Z,3180
2017-08-01T09:57:21.867Z,2635
2017-08-01T09:58:33.888Z,1380
2017-08-01T09:59:46.172Z,1360
2017-08-01T10:00:58.763Z,2400
2017-08-01T10:02:11.079Z,2930
2017-08-01T10:03:23.430Z,2825
2017-08-01T10:04:35.722Z,1640
2017-08-01T10:05:48.273Z,605
2017-08-01T10:07:00.861Z,780
2017-08-01T10:08:13.174Z,2090
2017-08-01T10:09:25.444Z,3155
2017-08-01T10:10:38.079Z,3045
2017-08-01T10:11:50.697Z,3190
2017-08-01T10:13:03.265Z,3060
2017-08-01T10:14:15.596Z,3205
2017-08-01T10:15:27.937Z,3130
2017-08-01T10:16:40.255Z,3170
2017-08-01T10:17:52.890Z,3320
2017-08-01T10:19:05.487Z,3080
2017-08-01T10:20:17.775Z,3040
2017-08-01T10:21:30.349Z,2955
2017-08-01T10:22:42.674Z,2800
2017-08-01T10:23:55.290Z,3010
2017-08-01T10:25:07.601Z,3075
2017-08-01T10:26:19.632Z,2910
2017-08-01T10:27:32.247Z,2810
2017-08-01T10:28:44.879Z,2635
2017-08-01T10:29:56.884Z,2555
2017-08-01T10:31:09.451Z,2605
2017-08-01T10:32:21.414Z,2575
2017-08-01T10:33:34.078Z,2540
2017-08-01T10:34:46.458Z,2460
2017-08-01T10:35:58.762Z,2410
2017-08-01T10:37:11.426Z,1975
2017-08-01T10:38:23.711Z,2020
2017-08-01T10:39:36.550Z,2000
2017-08-01T10:40:48.223Z,1910
2017-08-01T10:42:00.829Z,1645
2017-08-01T10:43:13.199Z,1955
2017-08-01T10:44:25.790Z,1720
2017-08-01T10:45:38.380Z,1675
2017-08-01T10:46:50.338Z,1700
2017-08-01T10:48:03.003Z,1660
2017-08-01T10:49:15.691Z,1740
2017-08-01T10:50:28.266Z,1675
2017-08-01T10:51:40.565Z,1690
2017-08-01T10:52:53.166Z,1545
2017-08-01T10:54:05.801Z,1535
2017-08-01T10:55:18.436Z,1425
2017-08-01T10:56:31.035Z,1310
2017-08-01T10:57:43.710Z,1645
2017-08-01T10:58:55.995Z,1890
2017-08-01T11:00:08.318Z,1515
2017-08-01T11:01:20.929Z,1400
2017-08-01T11:02:33.536Z,2025
2017-08-01T11:03:46.125Z,2290
2017-08-01T11:04:58.714Z,2695
2017-08-01T11:06:11.334Z,3150
2017-08-01T11:07:23.623Z,3500
2017-08-01T11:08:36.277Z,4700
2017-08-01T11:09:48.561Z,6195
2017-08-01T11:11:00.942Z,6310
2017-08-01T11:12:12.701Z,6460
2017-08-01T11:13:25.328Z,6070
2017-08-01T11:14:37.924Z,4955
2017-08-01T11:15:50.274Z,4945
2017-08-01T11:17:02.550Z,4950
2017-08-01T11:18:15.450Z,4940
2017-08-01T11:19:28.099Z,4945
2017-08-01T11:20:40.738Z,3460
2017-08-01T11:21:53.306Z,4940
2017-08-01T11:23:05.277Z,4535
2017-08-01T11:24:17.303Z,3230
2017-08-01T11:25:29.898Z,4720
2017-08-01T11:26:42.491Z,1170
2017-08-01T11:27:54.795Z,3005
2017-08-01T11:29:07.139Z,1960
2017-08-01T11:30:19.164Z,2895
2017-08-01T11:31:31.478Z,2975
2017-08-01T11:32:43.845Z,2640
2017-08-01T11:33:55.848Z,1835
2017-08-01T11:35:08.518Z,1240
2017-08-01T11:36:21.106Z,4400
2017-08-01T11:37:33.440Z,4550
2017-08-01T11:38:45.742Z,4475
2017-08-01T11:39:57.991Z,4420
2017-08-01T11:41:10.642Z,4415
2017-08-01T11:42:22.679Z,4410
2017-08-01T11:43:34.961Z,4435
2017-08-01T11:44:47.229Z,4495
2017-08-01T11:45:59.183Z,4440
2017-08-01T11:47:11.877Z,4285
2017-08-01T11:48:23.892Z,4260
2017-08-01T11:49:36.424Z,4210
2017-08-01T11:50:48.712Z,4245
2017-08-01T11:52:01.321Z,4260
2017-08-01T11:53:13.675Z,4295
2017-08-01T11:54:26.372Z,4400
2017-08-01T11:55:38.668Z,4545
2017-08-01T11:56:51.289Z,4665
2017-08-01T11:58:03.886Z,4635
2017-08-01T11:59:15.881Z,4125
2017-08-01T12:00:28.203Z,4905
2017-08-01T12:01:40.829Z,1415
2017-08-01T12:02:53.429Z,4645
2017-08-01T12:04:06.064Z,4410
2017-08-01T12:05:18.434Z,4485
2017-08-01T12:06:31.217Z,4850
2017-08-01T12:07:43.911Z,4785
2017-08-01T12:08:56.204Z,4955
2017-08-01T12:10:08.846Z,5255
2017-08-01T12:11:21.416Z,5600
2017-08-01T12:12:33.984Z,5795
2017-08-01T12:13:46.306Z,5080
2017-08-01T12:14:58.580Z,5110
2017-08-01T12:16:11.173Z,5425
2017-08-01T12:17:23.469Z,5440
2017-08-01T12:18:35.754Z,5345
2017-08-01T12:19:47.754Z,5135
2017-08-01T12:21:00.375Z,4580
2017-08-01T12:22:12.678Z,4810
2017-08-01T12:23:25.010Z,4625
2017-08-01T12:24:37.605Z,4815
2017-08-01T12:25:50.217Z,4915
2017-08-01T12:27:02.476Z,5010
2017-08-01T12:28:15.118Z,4795
2017-08-01T12:29:27.743Z,5000
2017-08-01T12:30:40.360Z,4870
2017-08-01T12:31:52.980Z,4570
2017-08-01T12:33:05.575Z,4370
2017-08-01T12:34:17.839Z,4335
2017-08-01T12:35:30.489Z,4480
2017-08-01T12:36:42.830Z,4760
2017-08-01T12:37:54.880Z,5140
2017-08-01T12:39:07.482Z,5140
2017-08-01T12:40:19.505Z,5085
2017-08-01T12:41:31.600Z,4990
2017-08-01T12:42:44.170Z,5070
2017-08-01T12:43:56.804Z,2130
2017-08-01T12:45:08.166Z,3205
2017-08-01T12:46:20.523Z,1370
2017-08-01T12:47:32.783Z,1760
2017-08-01T12:48:44.798Z,3230
2017-08-01T12:49:57.061Z,990
2017-08-01T12:51:09.712Z,2395
2017-08-01T12:52:21.434Z,1775
2017-08-01T12:53:33.999Z,3895
2017-08-01T12:54:46.293Z,2415
2017-08-01T12:55:58.641Z,1290
2017-08-01T12:57:11.245Z,1145
2017-08-01T12:58:23.254Z,2060
2017-08-01T12:59:35.933Z,3350
2017-08-01T13:00:48.521Z,1060
2017-08-01T13:02:00.793Z,875
2017-08-01T13:03:13.395Z,1110
2017-08-01T13:04:26.042Z,900
2017-08-01T13:05:38.341Z,1095
2017-08-01T13:06:50.431Z,1405
2017-08-01T13:08:02.740Z,2485
2017-08-01T13:09:15.343Z,2945
2017-08-01T13:10:27.600Z,3610
2017-08-01T13:11:40.215Z,3430
2017-08-01T13:12:52.472Z,4395
2017-08-01T13:14:05.088Z,4140
2017-08-01T13:15:17.701Z,1520
2017-08-01T13:16:30.286Z,1575
2017-08-01T13:17:42.564Z,4390
2017-08-01T13:18:54.511Z,1380
2017-08-01T13:20:07.105Z,1640
2017-08-01T13:21:19.159Z,1500
2017-08-01T13:22:31.761Z,1145
2017-08-01T13:23:44.411Z,3140
2017-08-01T13:24:57.014Z,1575
2017-08-01T13:26:09.673Z,4270
2017-08-01T13:27:21.684Z,3140
2017-08-01T13:28:34.240Z,1210
2017-08-01T13:29:46.850Z,1060
2017-08-01T13:30:59.138Z,925
2017-08-01T13:32:11.731Z,1055
2017-08-01T13:33:23.813Z,925
2017-08-01T13:34:36.450Z,920
2017-08-01T13:35:48.755Z,1105
2017-08-01T13:37:00.767Z,1165
2017-08-01T13:38:13.162Z,960
2017-08-01T13:39:25.790Z,915
2017-08-01T13:40:37.493Z,945
2017-08-01T13:41:49.786Z,970
2017-08-01T13:43:02.059Z,925
2017-08-01T13:44:14.361Z,1025
2017-08-01T13:45:27.028Z,1325
2017-08-01T13:46:39.377Z,1375
2017-08-01T13:47:51.676Z,1100
2017-08-01T13:49:04.283Z,915
2017-08-01T13:50:16.635Z,995
2017-08-01T13:51:29.256Z,940
2017-08-01T13:52:41.572Z,1000
2017-08-01T13:53:54.205Z,935
2017-08-01T13:55:06.888Z,1030
2017-08-01T13:56:18.611Z,1580
2017-08-01T13:57:30.859Z,1165
2017-08-01T13:58:43.457Z,1730
2017-08-01T13:59:55.724Z,1645
2017-08-01T14:01:08.444Z,1200
2017-08-01T14:02:21.026Z,2460
2017-08-01T14:03:33.691Z,1720
2017-08-01T14:04:45.982Z,1405
2017-08-01T14:05:58.279Z,2140
2017-08-01T14:07:10.334Z,1985
2017-08-01T14:08:22.692Z,1060
2017-08-01T14:09:35.344Z,925
2017-08-01T14:10:47.918Z,3420
2017-08-01T14:12:00.191Z,1865
2017-08-01T14:13:12.818Z,1290
2017-08-01T14:14:25.113Z,1460
2017-08-01T14:15:37.699Z,1425
2017-08-01T14:16:49.992Z,1105
2017-08-01T14:18:01.696Z,1285
2017-08-01T14:19:14.307Z,3140
2017-08-01T14:20:26.578Z,3060
2017-08-01T14:21:39.223Z,2685
2017-08-01T14:22:51.530Z,3060
2017-08-01T14:24:03.613Z,2850
2017-08-01T14:25:16.259Z,1315
2017-08-01T14:26:28.889Z,935
2017-08-01T14:27:41.545Z,1070
2017-08-01T14:28:53.852Z,1255
2017-08-01T14:30:06.497Z,2350
2017-08-01T14:31:18.783Z,2515
2017-08-01T14:32:30.794Z,2335
2017-08-01T14:33:43.060Z,2420
2017-08-01T14:34:55.360Z,2330
2017-08-01T14:36:07.727Z,2665
2017-08-01T14:37:20.006Z,2475
2017-08-01T14:38:32.298Z,2340
2017-08-01T14:39:44.323Z,2160
2017-08-01T14:40:56.908Z,1095
2017-08-01T14:42:08.886Z,1150
2017-08-01T14:43:21.502Z,1365
2017-08-01T14:44:34.188Z,1055
2017-08-01T14:45:46.531Z,680
2017-08-01T14:46:58.886Z,535
2017-08-01T14:48:11.164Z,875
2017-08-01T14:49:23.739Z,655
2017-08-01T14:50:36.381Z,580
2017-08-01T14:51:49.022Z,570
2017-08-01T14:53:01.255Z,505
2017-08-01T14:54:13.574Z,480
2017-08-01T14:55:26.210Z,460
2017-08-01T14:56:38.847Z,450
2017-08-01T14:57:51.443Z,455
2017-08-01T14:59:03.983Z,475
2017-08-01T15:00:16.335Z,505
2017-08-01T15:01:28.647Z,490
2017-08-01T15:02:40.953Z,505
2017-08-01T15:03:53.555Z,500
2017-08-01T15:05:06.229Z,475
2017-08-01T15:06:18.912Z,460
2017-08-01T15:07:31.254Z,435
2017-08-01T15:08:43.815Z,370
2017-08-01T15:09:56.360Z,415
2017-08-01T15:11:08.932Z,420
2017-08-01T15:12:21.203Z,440
2017-08-01T15:13:33.540Z,485
2017-08-01T15:14:46.230Z,440
2017-08-01T15:15:58.841Z,445
2017-08-01T15:17:11.164Z,465
2017-08-01T15:18:23.781Z,435
2017-08-01T15:19:36.053Z,445
2017-08-01T15:20:48.610Z,440
2017-08-01T15:22:01.477Z,445
2017-08-01T15:23:13.801Z,445
2017-08-01T15:24:26.410Z,455
2017-08-01T15:25:39.005Z,475
2017-08-01T15:26:51.595Z,460
2017-08-01T15:28:04.290Z,450
2017-08-01T15:29:16.861Z,430
2017-08-01T15:30:29.427Z,415
2017-08-01T15:31:42.019Z,405
2017-08-01T15:32:54.061Z,390
2017-08-01T15:34:06.659Z,390
2017-08-01T15:35:18.966Z,390
2017-08-01T15:36:31.281Z,385
2017-08-01T15:37:43.978Z,375
2017-08-01T15:38:56.522Z,370
2017-08-01T15:40:08.832Z,345
2017-08-01T15:41:21.406Z,345
2017-08-01T15:42:33.374Z,350
2017-08-01T15:43:46.024Z,350
2017-08-01T15:44:58.069Z,355
2017-08-01T15:46:10.136Z,350
2017-08-01T15:47:22.391Z,340
2017-08-01T15:48:34.722Z,335
2017-08-01T15:49:47.001Z,350
2017-08-01T15:50:59.627Z,340
2017-08-01T15:52:11.980Z,360
2017-08-01T15:53:24.604Z,315
2017-08-01T15:54:36.572Z,300
2017-08-01T15:55:49.195Z,315
2017-08-01T15:57:01.499Z,315
2017-08-01T15:58:13.478Z,305
2017-08-01T15:59:26.121Z,295
2017-08-01T16:00:38.120Z,310
2017-08-01T16:01:50.684Z,320
2017-08-01T16:03:02.630Z,315
2017-08-01T16:04:15.211Z,305
2017-08-01T16:05:27.521Z,295
2017-08-01T16:06:39.196Z,340
2017-08-01T16:07:51.767Z,350
2017-08-01T16:09:04.359Z,310
2017-08-01T16:10:16.648Z,285
2017-08-01T16:11:29.301Z,275
2017-08-01T16:12:41.636Z,265
2017-08-01T16:13:53.925Z,250
2017-08-01T16:15:06.337Z,255
2017-08-01T16:16:18.918Z,250
2017-08-01T16:17:30.380Z,240
2017-08-01T16:18:42.964Z,235
2017-08-01T16:19:55.501Z,260
2017-08-01T16:21:08.155Z,275
2017-08-01T16:22:20.768Z,280
2017-08-01T16:23:32.828Z,300
2017-08-01T16:24:45.148Z,345
2017-08-01T16:25:57.128Z,380
2017-08-01T16:27:09.755Z,360
2017-08-01T16:28:22.370Z,325
2017-08-01T16:29:34.997Z,285
2017-08-01T16:30:47.572Z,255
2017-08-01T16:32:00.191Z,240
2017-08-01T16:33:12.521Z,235
2017-08-01T16:34:24.476Z,225
2017-08-01T16:35:36.812Z,205
2017-08-01T16:36:49.394Z,200
2017-08-01T16:38:02.018Z,250
2017-08-01T16:39:14.637Z,285
2017-08-01T16:40:26.932Z,285
2017-08-01T16:41:39.278Z,255
2017-08-01T16:42:51.902Z,230
2017-08-01T16:44:03.918Z,220
2017-08-01T16:45:16.212Z,200